CheckWX is a tool to help pilots better visualize weather data.  It is not intended as a substitute for an official pre-flight weather briefing.

09:25:54 UTC

KTHA METAR
Tullahoma Regional Arpt / Wm Northern Field Airport
Tullahoma, Tennessee, USA
Current

31 mins ago

KTHA 070855Z AUTO 02004KT 10SM OVC039 05/03 A3023 RMK A01
Observed
Dec-7 @ 08:55 UTC
Wind
  • 020° at 4 KTS
Visibility
10 SM
Flight Rules
VFR
Cloud Levels
  • Overcast at 3,900' AGL
Temperature
C / 41°F
Dewpoint
C / 37°F
Humidity
87%
Altimeter
30.23" Hg
Pressure
1023.72 hPa
Previous

51 mins ago

KTHA 070835Z AUTO 02004KT 10SM OVC039 04/03 A3022 RMK A01
Observed
Dec-7 @ 08:35 UTC
Wind
  • 020° at 4 KTS
Visibility
10 SM
Flight Rules
VFR
Cloud Levels
  • Overcast at 3,900' AGL
Temperature
C / 39°F
Dewpoint
C / 37°F
Humidity
93%
Altimeter
30.22" Hg
Pressure
1023.42 hPa
Previous

1 hour ago

KTHA 070815Z AUTO 02004KT 10SM OVC040 04/03 A3022 RMK A01
Observed
Dec-7 @ 08:15 UTC
Wind
  • 020° at 4 KTS
Visibility
10 SM
Flight Rules
VFR
Cloud Levels
  • Overcast at 4,000' AGL
Temperature
C / 39°F
Dewpoint
C / 37°F
Humidity
93%
Altimeter
30.22" Hg
Pressure
1023.42 hPa